TAF Text Data
IDs:
Format:
Raw Decoded Include METAR

Data at: 1334 UTC 10 Jul 2020

KHSV 101120Z 1012/1112 26004KT P6SM SCT050
  FM101800 29009G15KT P6SM FEW050 FEW250
  FM110200 33005KT P6SM SKC